createdAt,value
2023-02-13T00:03:15.058Z,38.53
2023-02-13T00:08:16.756Z,34.92
2023-02-13T00:13:18.419Z,37.28
2023-02-13T00:18:19.977Z,40.55
2023-02-13T00:23:21.588Z,40.05
2023-02-13T00:28:23.296Z,36.80
2023-02-13T00:33:24.938Z,45.30
2023-02-13T00:38:26.980Z,43.58
2023-02-13T00:43:28.736Z,34.15
2023-02-13T00:48:33.314Z,38.15
2023-02-13T00:53:36.100Z,41.60
2023-02-13T00:58:38.204Z,32.55
2023-02-13T01:03:40.483Z,34.40
2023-02-13T01:08:42.295Z,35.25
2023-02-13T01:13:43.968Z,33.33
2023-02-13T01:18:45.852Z,34.20
2023-02-13T01:23:47.758Z,36.00
2023-02-13T01:28:52.801Z,34.58
2023-02-13T01:33:59.601Z,32.30
2023-02-13T01:39:01.217Z,34.92
2023-02-13T01:44:02.936Z,37.30
2023-02-13T01:49:15.415Z,41.13
2023-02-13T01:54:21.910Z,36.05
2023-02-13T01:59:30.504Z,41.20
2023-02-13T02:09:44.170Z,36.10
2023-02-13T02:14:49.521Z,32.47
2023-02-13T02:20:21.329Z,38.03
2023-02-13T02:25:41.298Z,39.40
2023-02-13T02:31:16.892Z,37.15
2023-02-13T02:36:24.668Z,36.13
2023-02-13T02:41:42.154Z,32.38
2023-02-13T02:47:45.815Z,47.83
2023-02-13T02:53:00.414Z,36.92
2023-02-13T02:58:31.851Z,32.00
2023-02-13T03:03:54.570Z,37.65
2023-02-13T03:09:19.716Z,39.67
2023-02-13T03:14:26.536Z,33.25
2023-02-13T03:20:21.229Z,37.60
2023-02-13T03:25:55.683Z,46.35
2023-02-13T03:31:24.418Z,33.72
2023-02-13T03:36:50.737Z,36.13
2023-02-13T03:42:02.748Z,31.77
2023-02-13T03:47:06.813Z,61.22
2023-02-13T03:52:24.953Z,63.15
2023-02-13T03:57:47.294Z,35.27
2023-02-13T04:03:07.995Z,38.35
2023-02-13T04:08:09.887Z,44.95
2023-02-13T04:13:19.001Z,38.38
2023-02-13T04:18:28.187Z,40.33
2023-02-13T04:23:30.107Z,35.50
2023-02-13T04:28:32.163Z,32.35
2023-02-13T04:33:33.803Z,35.35
2023-02-13T04:38:35.399Z,45.58
2023-02-13T04:43:37.462Z,33.83
2023-02-13T04:48:39.094Z,31.98
2023-02-13T04:53:40.810Z,33.28
2023-02-13T04:58:42.523Z,39.55
2023-02-13T05:03:44.213Z,31.27
2023-02-13T05:08:45.822Z,35.55
2023-02-13T05:13:47.420Z,34.83
2023-02-13T05:18:49.286Z,42.13
2023-02-13T05:23:51.134Z,33.65
2023-02-13T05:29:11.771Z,36.45
2023-02-13T05:34:13.517Z,34.65
2023-02-13T05:39:15.477Z,32.05
2023-02-13T05:44:17.626Z,28.83
2023-02-13T05:49:19.340Z,30.52
2023-02-13T05:54:21.006Z,28.63
2023-02-13T05:59:24.009Z,36.33
2023-02-13T06:04:25.865Z,35.17
2023-02-13T06:09:27.488Z,29.98
2023-02-13T06:14:29.076Z,32.88
2023-02-13T06:19:30.733Z,30.85
2023-02-13T06:24:32.372Z,37.60
2023-02-13T06:29:34.113Z,36.33
2023-02-13T06:34:35.924Z,34.22
2023-02-13T06:39:38.045Z,32.97
2023-02-13T06:44:39.655Z,50.13
2023-02-13T06:49:41.286Z,49.95
2023-02-13T06:54:47.847Z,36.42
2023-02-13T06:59:49.802Z,30.13
2023-02-13T07:04:51.436Z,26.90
2023-02-13T07:09:53.054Z,27.23
2023-02-13T07:14:54.651Z,29.05
2023-02-13T07:19:56.307Z,29.10
2023-02-13T07:24:59.279Z,23.60
2023-02-13T07:30:00.932Z,22.48
2023-02-13T07:35:02.857Z,23.90
2023-02-13T07:40:06.477Z,22.13
2023-02-13T07:45:08.823Z,20.50
2023-02-13T07:50:11.156Z,33.13
2023-02-13T07:55:12.830Z,36.22
2023-02-13T08:00:15.655Z,36.72
2023-02-13T08:05:17.606Z,28.42
2023-02-13T08:10:38.862Z,33.40
2023-02-13T08:15:40.873Z,39.13
2023-02-13T08:20:42.492Z,26.50
2023-02-13T08:25:44.274Z,21.45
2023-02-13T08:30:45.938Z,20.23
2023-02-13T08:35:47.532Z,21.02
2023-02-13T08:40:49.213Z,24.30
2023-02-13T08:45:50.873Z,22.23
2023-02-13T08:50:52.675Z,27.25
2023-02-13T08:55:56.802Z,52.97
2023-02-13T09:00:58.921Z,124.70
2023-02-13T09:06:02.148Z,138.10
2023-02-13T09:11:07.260Z,67.55
2023-02-13T09:16:10.600Z,30.38
2023-02-13T09:21:12.898Z,25.08
2023-02-13T09:26:16.321Z,24.52
2023-02-13T09:31:21.963Z,23.42
2023-02-13T09:36:24.677Z,24.35
2023-02-13T09:41:39.913Z,27.92
2023-02-13T09:46:44.200Z,25.10
2023-02-13T09:51:54.321Z,24.00
2023-02-13T09:57:20.741Z,25.13
2023-02-13T10:02:53.688Z,25.50
2023-02-13T10:08:04.073Z,20.85
2023-02-13T10:13:31.320Z,22.95
2023-02-13T10:18:51.153Z,22.42
2023-02-13T10:24:12.758Z,74.07
2023-02-13T10:30:01.822Z,102.25
2023-02-13T10:35:14.845Z,69.50
2023-02-13T10:40:18.076Z,22.83
2023-02-13T10:45:29.973Z,26.60
2023-02-13T10:50:45.980Z,22.77
2023-02-13T10:56:12.910Z,127.90
2023-02-13T11:01:22.317Z,26.70
2023-02-13T11:06:24.005Z,20.15
2023-02-13T11:11:32.547Z,18.67
2023-02-13T11:17:06.117Z,17.50
2023-02-13T11:22:14.070Z,20.70
2023-02-13T11:27:16.106Z,15.57
2023-02-13T11:32:19.492Z,23.23
2023-02-13T11:37:26.372Z,24.88
2023-02-13T11:42:30.401Z,17.13
2023-02-13T11:47:42.524Z,16.38
2023-02-13T11:52:50.761Z,18.10
2023-02-13T11:58:22.820Z,15.37
2023-02-13T12:03:32.290Z,18.48
2023-02-13T12:08:37.365Z,19.58
2023-02-13T12:13:39.541Z,20.52
2023-02-13T12:18:46.465Z,18.60
2023-02-13T12:24:10.959Z,14.68
2023-02-13T12:29:21.934Z,17.38
2023-02-13T12:34:51.812Z,13.80
2023-02-13T12:40:31.157Z,27.10
2023-02-13T12:45:51.759Z,21.73
2023-02-13T12:51:41.030Z,43.20
2023-02-13T12:57:06.525Z,38.47
2023-02-13T13:02:17.091Z,28.17
2023-02-13T13:07:45.120Z,17.90
2023-02-13T13:13:13.482Z,16.83
2023-02-13T13:18:15.081Z,13.52
2023-02-13T13:23:41.643Z,14.15
2023-02-13T13:28:47.339Z,12.30
2023-02-13T13:33:49.137Z,11.75
2023-02-13T13:38:59.992Z,11.55
2023-02-13T13:44:05.871Z,14.93
2023-02-13T13:49:38.106Z,10.68
2023-02-13T13:54:39.745Z,13.43
2023-02-13T13:59:48.700Z,10.93
2023-02-13T14:05:02.839Z,9.77
2023-02-13T14:10:06.146Z,9.70
2023-02-13T14:15:48.222Z,9.00
2023-02-13T14:20:50.650Z,12.07
2023-02-13T14:26:11.702Z,9.20
2023-02-13T14:31:29.954Z,8.75
2023-02-13T14:36:38.107Z,15.38
2023-02-13T14:41:54.099Z,10.87
2023-02-13T14:46:56.907Z,11.57
2023-02-13T14:52:27.694Z,9.73
2023-02-13T14:57:34.494Z,20.48
2023-02-13T15:02:42.561Z,10.38
2023-02-13T15:08:13.009Z,8.43
2023-02-13T15:13:19.185Z,9.25
2023-02-13T15:18:26.001Z,11.07
2023-02-13T15:23:33.645Z,9.00
2023-02-13T15:28:36.762Z,8.50
2023-02-13T15:33:49.759Z,7.05
2023-02-13T15:39:03.988Z,7.03
2023-02-13T15:44:06.020Z,21.67
2023-02-13T15:49:20.228Z,49.25
2023-02-13T15:54:28.629Z,26.30
2023-02-13T15:59:38.917Z,9.30
2023-02-13T16:04:42.348Z,9.98
2023-02-13T16:09:44.378Z,6.47
2023-02-13T16:15:02.819Z,36.05
2023-02-13T16:20:25.894Z,16.37
2023-02-13T16:25:32.669Z,55.78
2023-02-13T16:30:41.550Z,40.53
2023-02-13T16:35:50.472Z,10.32
2023-02-13T16:40:52.100Z,10.20
2023-02-13T16:45:53.826Z,10.85
2023-02-13T16:50:56.336Z,13.13
2023-02-13T16:56:03.459Z,12.15
2023-02-13T17:01:05.936Z,9.13
2023-02-13T17:06:10.576Z,13.55
2023-02-13T17:11:18.431Z,11.52
2023-02-13T17:16:20.119Z,19.98
2023-02-13T17:21:21.907Z,23.70
2023-02-13T17:26:23.532Z,18.50
2023-02-13T17:31:25.265Z,22.70
2023-02-13T17:36:27.276Z,23.75
2023-02-13T17:41:29.750Z,16.27
2023-02-13T17:46:31.387Z,20.58
2023-02-13T17:51:33.429Z,16.50
2023-02-13T17:56:35.306Z,10.27
2023-02-13T18:01:37.054Z,12.98
2023-02-13T18:06:38.692Z,13.25
2023-02-13T18:11:40.416Z,13.90
2023-02-13T18:16:42.114Z,19.40
2023-02-13T18:21:43.946Z,17.20
2023-02-13T18:26:45.618Z,15.13
2023-02-13T18:31:51.727Z,21.92
2023-02-13T18:36:53.786Z,23.38
2023-02-13T18:41:56.339Z,16.60
2023-02-13T18:46:58.655Z,15.35
2023-02-13T18:52:01.748Z,19.98
2023-02-13T18:57:03.630Z,17.98
2023-02-13T19:02:05.719Z,12.60
2023-02-13T19:07:07.403Z,13.85
2023-02-13T19:12:09.095Z,10.55
2023-02-13T19:17:12.996Z,13.15
2023-02-13T19:22:15.159Z,12.75
2023-02-13T19:27:17.657Z,14.57
2023-02-13T19:32:19.567Z,14.00
2023-02-13T19:37:21.429Z,10.10
2023-02-13T19:42:23.063Z,10.95
2023-02-13T19:47:24.768Z,13.35
2023-02-13T19:52:26.370Z,16.23
2023-02-13T19:57:28.573Z,17.70
2023-02-13T20:02:30.543Z,11.93
2023-02-13T20:07:32.274Z,12.85
2023-02-13T20:12:33.968Z,12.52
2023-02-13T20:17:37.979Z,12.02
2023-02-13T20:22:40.024Z,14.63
2023-02-13T20:27:42.505Z,13.07
2023-02-13T20:32:44.852Z,13.07
2023-02-13T20:37:46.862Z,12.25
2023-02-13T20:42:48.655Z,13.27
2023-02-13T20:47:50.346Z,12.57
2023-02-13T20:52:53.116Z,14.18
2023-02-13T20:57:54.979Z,12.85
2023-02-13T21:02:56.879Z,16.20
2023-02-13T21:07:58.931Z,16.35
2023-02-13T21:13:01.150Z,13.48
2023-02-13T21:18:03.986Z,12.82
2023-02-13T21:23:05.838Z,12.25
2023-02-13T21:28:07.533Z,11.68
2023-02-13T21:33:09.178Z,13.13
2023-02-13T21:38:10.830Z,13.73
2023-02-13T21:43:12.530Z,13.45
2023-02-13T21:48:14.174Z,12.80
2023-02-13T21:53:16.048Z,11.60
2023-02-13T21:58:17.750Z,11.45
2023-02-13T22:03:19.565Z,14.35
2023-02-13T22:08:21.224Z,12.95
2023-02-13T22:13:23.284Z,14.40
2023-02-13T22:18:25.027Z,13.25
2023-02-13T22:23:26.688Z,11.38
2023-02-13T22:28:28.844Z,15.57
2023-02-13T22:33:30.517Z,11.98
2023-02-13T22:38:33.715Z,12.32
2023-02-13T22:43:36.200Z,12.98
2023-02-13T22:48:38.981Z,13.35
2023-02-13T22:53:40.980Z,13.20
2023-02-13T22:58:42.645Z,14.57
2023-02-13T23:03:45.836Z,13.95
2023-02-13T23:08:52.296Z,16.30
2023-02-13T23:13:53.996Z,14.43
2023-02-13T23:18:57.382Z,11.80
2023-02-13T23:23:59.149Z,14.85
2023-02-13T23:29:00.787Z,13.43
2023-02-13T23:34:02.669Z,15.80
2023-02-13T23:39:04.397Z,16.38
2023-02-13T23:44:06.065Z,14.15
2023-02-13T23:49:07.750Z,12.60
2023-02-13T23:54:14.324Z,11.65
2023-02-13T23:59:17.200Z,11.35
